Stations météo

réclame
Mon MeteoGroup
Albacete, Espagne (8279): Température de l'air & dewpoint: 14.06.2018 07:00:00 - 20.06.2018 07:00:00 (CEST)Albacete, Espagne (8279): Vitesse du vent & gusts: 14.06.2018 07:00:00 - 20.06.2018 07:00:00 (CEST)Albacete, Espagne (8279): Direction du vent: 14.06.2018 07:00:00 - 20.06.2018 07:00:00 (CEST)Albacete, Espagne (8279): reduced air pressure: 14.06.2018 07:00:00 - 20.06.2018 07:00:00 (CEST)Albacete, Espagne (8279): Quantités de précipitations: 14.06.2018 07:00:00 - 20.06.2018 07:00:00 (CEST)
Date & Time tt [°C] td [°C] ff [km/h] ff [knt] fx [km/h] fx [knt] dd ppp [hPa] rr [mm]
20.06.2018 07:00:00 16,2 11,1 3 1 12 7 E 1019,0 0,0
20.06.2018 06:00:00 17,0 11,4 6 3 - - SE 1018,8 -
20.06.2018 05:00:00 17,5 11,6 6 3 14 8 SE 1019,1 0,0
20.06.2018 04:00:00 17,4 11,9 4 2 13 7 E 1019,1 0,0
20.06.2018 03:00:00 18,1 12,1 4 2 20 11 E 1019,4 0,0
20.06.2018 02:00:00 18,9 12,2 6 3 23 12 SSE 1019,2 -
20.06.2018 01:00:00 19,6 12,3 8 4 24 13 SSE 1018,8 0,0
20.06.2018 00:00:00 20,6 12,0 8 4 24 13 SSE 1018,6 0,0
19.06.2018 23:00:00 21,7 12,2 7 4 23 13 SSE 1018,1 0,0
19.06.2018 22:00:00 23,3 11,7 6 3 27 14 S 1016,9 0,0
19.06.2018 21:00:00 25,5 11,2 7 4 29 16 SSE 1016,1 0,0
19.06.2018 20:00:00 27,4 11,8 6 4 29 16 S 1015,3 -
19.06.2018 19:00:00 28,6 12,1 8 4 29 16 SE 1015,0 0,0
19.06.2018 18:00:00 28,9 12,3 6 3 21 11 SSE 1015,4 0,0
19.06.2018 17:00:00 29,5 12,8 6 4 24 13 SE 1015,7 0,0
19.06.2018 16:00:00 28,7 12,1 6 3 23 13 ESE 1016,2 0,0
19.06.2018 15:00:00 28,3 11,8 6 4 27 15 S 1016,8 0,0
19.06.2018 14:00:00 27,6 12,0 6 3 26 14 S 1017,6 -
19.06.2018 13:00:00 25,6 12,1 8 5 32 17 SSE 1018,6 0,0
19.06.2018 12:00:00 23,9 11,2 10 5 29 16 S 1019,3 0,0
19.06.2018 11:00:00 22,7 11,8 9 5 26 14 SE 1019,8 0,0
19.06.2018 10:00:00 21,0 12,1 7 4 24 13 SE 1020,2 0,0
19.06.2018 09:00:00 18,8 12,5 7 4 18 10 SE 1021,0 0,0
19.06.2018 08:00:00 16,6 13,0 3 2 11 6 E 1020,8 -
19.06.2018 07:00:00 16,8 12,7 3 2 10 5 E 1020,5 0,0
19.06.2018 06:00:00 17,4 12,7 4 2 14 7 SE 1020,2 0,0
19.06.2018 05:00:00 17,6 11,4 3 2 8 5 E 1019,9 0,0
19.06.2018 04:00:00 18,6 11,4 2 1 13 7 E 1019,9 0,0
19.06.2018 03:00:00 18,9 11,4 2 1 12 7 ESE 1019,9 0,0
19.06.2018 02:00:00 20,0 12,0 4 2 12 6 E 1019,5 -
19.06.2018 01:00:00 - - - - - - - - -
19.06.2018 00:00:00 22,4 13,2 5 3 15 8 E 1018,9 0,0
18.06.2018 23:00:00 23,8 12,7 6 4 16 9 SE 1017,9 0,0
18.06.2018 22:00:00 25,6 12,4 5 3 22 12 SSW 1016,4 0,0
18.06.2018 21:00:00 28,6 11,2 6 4 20 11 SSE 1014,7 0,0
18.06.2018 20:00:00 32,2 9,7 3 1 10 6 NNE 1013,5 -
18.06.2018 19:00:00 32,1 9,0 1 1 15 8 ESE 1013,4 0,0
18.06.2018 18:00:00 32,8 10,2 3 2 14 7 ENE 1014,0 0,0
18.06.2018 17:00:00 32,1 10,2 5 3 16 9 NNE 1014,4 0,0
18.06.2018 16:00:00 31,6 10,9 4 2 19 11 NNW 1014,9 0,0
18.06.2018 15:00:00 30,7 12,5 4 2 15 8 ENE 1015,7 0,0
18.06.2018 14:00:00 28,9 12,3 2 1 14 7 N 1016,9 -
18.06.2018 13:00:00 26,9 13,3 3 2 10 6 E 1018,0 0,0
18.06.2018 12:00:00 24,1 13,1 3 2 12 6 S 1019,1 0,0
18.06.2018 11:00:00 21,5 11,8 2 1 11 6 NE 1020,0 0,0
18.06.2018 10:00:00 19,2 12,4 3 1 10 5 N 1020,8 0,0
18.06.2018 09:00:00 16,5 13,6 2 1 16 9 W 1021,3 0,0
18.06.2018 08:00:00 15,7 13,4 4 2 12 6 WSW 1021,5 -
18.06.2018 07:00:00 15,8 13,0 1 1 8 4 W 1021,1 0,0
18.06.2018 06:00:00 16,0 12,7 0 0 8 4 N 1020,7 0,0
18.06.2018 05:00:00 16,4 13,0 1 1 8 4 E 1020,2 0,0
18.06.2018 04:00:00 17,1 13,7 0 0 0 0 N 1020,5 0,0
18.06.2018 03:00:00 17,6 13,6 0 0 6 3 N 1020,3 0,0
18.06.2018 02:00:00 18,4 13,5 5 3 14 7 E 1020,2 -
18.06.2018 01:00:00 20,6 13,1 5 3 14 7 ENE 1019,6 0,0
18.06.2018 00:00:00 22,9 11,3 5 3 19 10 ESE 1018,5 0,0
17.06.2018 23:00:00 24,1 11,1 5 3 19 10 S 1018,0 0,0
17.06.2018 22:00:00 26,9 10,2 6 3 16 9 SSW 1016,4 0,0
17.06.2018 21:00:00 30,8 11,2 1 1 17 9 NNW 1014,3 0,0
17.06.2018 20:00:00 31,8 11,0 3 2 13 7 WSW 1013,8 -
17.06.2018 19:00:00 32,3 10,9 1 0 18 10 S 1013,5 0,0
17.06.2018 18:00:00 31,9 10,5 5 3 18 10 SW 1014,2 0,0
17.06.2018 17:00:00 32,2 11,3 3 2 19 10 ENE 1014,2 0,0
17.06.2018 16:00:00 31,6 10,3 5 3 19 10 WNW 1014,8 0,0
17.06.2018 15:00:00 30,4 11,9 6 4 16 9 W 1015,4 0,0
17.06.2018 14:00:00 29,7 12,6 5 3 14 8 E 1015,9 -
17.06.2018 13:00:00 27,6 12,4 2 1 16 9 SSE 1016,6 0,0
17.06.2018 12:00:00 25,5 12,0 6 3 17 9 SW 1017,2 0,0
17.06.2018 11:00:00 23,2 13,1 3 2 15 8 S 1017,6 0,0
17.06.2018 10:00:00 20,4 13,9 1 1 7 4 ENE 1018,5 0,0
17.06.2018 09:00:00 17,8 14,3 3 1 8 4 ENE 1019,0 0,0
17.06.2018 08:00:00 16,3 13,4 2 1 6 3 ENE 1018,6 -
17.06.2018 07:00:00 16,1 12,2 2 1 6 3 ENE 1018,3 0,0
17.06.2018 06:00:00 16,6 12,1 3 2 9 5 E 1017,9 0,0
17.06.2018 05:00:00 17,2 13,4 0 0 12 7 ENE 1017,5 0,0
17.06.2018 04:00:00 18,6 13,3 2 1 16 8 SE 1016,9 0,0
17.06.2018 03:00:00 18,6 14,5 2 1 8 4 E 1016,9 0,0
17.06.2018 02:00:00 19,5 14,5 3 2 11 6 E 1016,7 -
17.06.2018 01:00:00 20,8 12,7 4 2 15 8 E 1016,0 0,0
17.06.2018 00:00:00 22,2 10,6 5 3 19 10 ESE 1014,7 0,0
16.06.2018 23:00:00 23,8 10,2 6 3 20 11 E 1014,1 0,0
16.06.2018 22:00:00 25,0 9,7 5 3 21 11 S 1012,4 0,0
16.06.2018 21:00:00 27,1 10,8 7 4 20 11 S 1011,2 0,0
16.06.2018 20:00:00 29,1 12,5 6 3 16 9 SSW 1010,0 -
16.06.2018 19:00:00 30,0 12,0 5 3 13 7 S 1009,7 0,0
16.06.2018 18:00:00 31,3 12,6 4 2 16 9 WSW 1009,4 0,0
16.06.2018 17:00:00 31,2 12,5 4 2 16 8 W 1009,5 0,0
16.06.2018 16:00:00 31,6 12,8 3 2 19 10 WSW 1009,7 0,0
16.06.2018 15:00:00 30,7 13,1 6 4 20 11 E 1010,3 0,0
16.06.2018 14:00:00 28,3 11,8 6 3 19 11 SSW 1011,5 -
16.06.2018 13:00:00 27,3 12,8 9 5 22 12 SE 1012,0 0,0
16.06.2018 12:00:00 24,9 12,8 9 5 23 13 ESE 1013,1 0,0
16.06.2018 11:00:00 23,0 13,2 8 4 22 12 SE 1013,6 0,0
16.06.2018 10:00:00 20,9 13,4 7 4 18 10 SSE 1014,0 0,0
16.06.2018 09:00:00 17,6 13,9 1 1 6 4 NE 1014,7 0,0
16.06.2018 08:00:00 15,5 12,6 0 0 4 2 N 1014,8 -
16.06.2018 07:00:00 15,1 12,2 1 0 9 5 E 1014,7 0,0
16.06.2018 06:00:00 15,5 12,6 0 0 7 4 N 1014,3 0,0
16.06.2018 05:00:00 16,4 13,0 3 2 5 3 ENE 1014,3 0,0
16.06.2018 04:00:00 17,1 12,6 3 1 7 4 E 1014,2 0,0
16.06.2018 03:00:00 18,3 12,5 3 1 12 6 ENE 1014,0 0,0
16.06.2018 02:00:00 20,0 12,0 3 2 16 9 E 1013,7 -
16.06.2018 01:00:00 21,0 12,1 4 2 18 10 ESE 1013,3 0,0
16.06.2018 00:00:00 22,3 11,3 5 3 18 10 SSE 1012,7 0,0
15.06.2018 23:00:00 25,2 7,3 3 1 12 6 W 1011,4 0,0
15.06.2018 22:00:00 26,6 7,1 3 2 13 7 W 1010,8 0,0
15.06.2018 21:00:00 28,7 7,3 7 4 17 9 W 1009,8 0,0
15.06.2018 20:00:00 29,9 7,1 8 5 20 11 W 1009,3 -
15.06.2018 19:00:00 30,4 7,0 4 2 19 11 WNW 1009,3 0,0
15.06.2018 18:00:00 30,5 7,7 5 3 24 13 WNW 1009,9 0,0
15.06.2018 17:00:00 29,7 7,6 8 4 23 12 W 1010,3 0,0
15.06.2018 16:00:00 29,2 8,3 6 4 26 14 WNW 1010,8 0,0
15.06.2018 15:00:00 27,2 8,1 9 5 19 10 WSW 1011,8 0,0
15.06.2018 14:00:00 26,8 9,7 3 2 15 8 WNW 1012,5 -
15.06.2018 13:00:00 24,7 9,8 3 2 13 7 NW 1013,2 0,0
15.06.2018 12:00:00 21,3 12,4 1 1 10 5 NE 1014,4 0,0
15.06.2018 11:00:00 18,9 13,3 2 1 11 6 NW 1015,0 0,0
15.06.2018 10:00:00 16,4 12,3 2 1 6 4 N 1015,6 0,0
15.06.2018 09:00:00 13,8 11,1 2 1 9 5 SSW 1016,2 0,0
15.06.2018 08:00:00 12,4 10,2 0 0 8 4 WNW 1016,5 -
15.06.2018 07:00:00 12,9 10,0 3 1 8 5 W 1015,9 0,0
15.06.2018 06:00:00 13,4 10,5 0 0 5 3 SW 1015,4 0,0
15.06.2018 05:00:00 13,6 10,5 0 0 8 4 N 1015,5 0,0
15.06.2018 04:00:00 14,4 9,8 4 2 13 7 WSW 1015,2 0,0
15.06.2018 03:00:00 15,1 10,3 3 1 5 3 ENE 1015,3 0,0
15.06.2018 02:00:00 16,4 9,0 1 1 9 5 NW 1015,1 -
15.06.2018 01:00:00 18,2 8,1 1 1 8 4 WNW 1014,7 0,0
15.06.2018 00:00:00 19,5 7,6 3 2 14 8 W 1014,2 0,0
14.06.2018 23:00:00 21,4 6,8 6 3 14 8 W 1013,6 0,0
14.06.2018 22:00:00 22,9 6,5 6 4 16 9 W 1012,7 0,0
14.06.2018 21:00:00 25,0 6,2 5 3 22 12 W 1011,6 0,0
14.06.2018 20:00:00 26,4 6,4 8 4 28 15 W 1011,0 -
14.06.2018 19:00:00 26,8 6,2 5 3 23 13 W 1010,7 0,0
14.06.2018 18:00:00 26,6 5,5 5 3 27 15 WNW 1011,1 0,0
14.06.2018 17:00:00 26,5 4,8 7 4 29 15 WNW 1011,4 0,0
14.06.2018 16:00:00 26,4 3,6 5 3 29 16 WNW 1011,6 0,0
14.06.2018 15:00:00 25,3 5,0 8 5 27 15 W 1012,1 0,0
14.06.2018 14:00:00 24,3 7,0 5 3 27 14 WNW 1012,6 -
14.06.2018 13:00:00 22,1 7,8 9 5 23 13 W 1013,6 0,0
14.06.2018 12:00:00 20,1 9,3 6 3 22 12 WNW 1014,4 0,0
14.06.2018 11:00:00 17,9 9,8 4 2 20 11 WNW 1014,8 0,0
14.06.2018 10:00:00 16,5 10,3 6 4 14 8 WSW 1015,2 0,0
14.06.2018 09:00:00 14,5 9,9 3 1 9 5 W 1016,1 0,0
14.06.2018 08:00:00 12,9 8,9 3 2 8 4 WSW 1016,5 -
14.06.2018 07:00:00 13,1 8,0 1 0 6 3 WNW 1016,6 0,0

tt = Température de l'air
td = dewpoint
ff = Vitesse du vent
fx = gusts
dd = Direction du vent
ppp = reduced air pressure
rr = Quantités de précipitations

stations d'obs. à proximité